sensor_id;sensor_type;location;lat;lon;timestamp;P1;durP1;ratioP1;P2;durP2;ratioP2
12476;SDS011;6303;51.504;6.300;2022-12-18T00:01:02;6.88;;;5.80;;
12476;SDS011;6303;51.504;6.300;2022-12-18T00:03:31;6.30;;;5.70;;
12476;SDS011;6303;51.504;6.300;2022-12-18T00:06:00;6.30;;;5.70;;
12476;SDS011;6303;51.504;6.300;2022-12-18T00:08:27;6.72;;;5.88;;
12476;SDS011;6303;51.504;6.300;2022-12-18T00:10:55;7.20;;;5.75;;
12476;SDS011;6303;51.504;6.300;2022-12-18T00:13:29;7.00;;;6.10;;
12476;SDS011;6303;51.504;6.300;2022-12-18T00:16:00;6.30;;;5.70;;
12476;SDS011;6303;51.504;6.300;2022-12-18T00:18:28;6.30;;;5.60;;
12476;SDS011;6303;51.504;6.300;2022-12-18T00:20:58;5.95;;;5.35;;
12476;SDS011;6303;51.504;6.300;2022-12-18T00:23:28;6.97;;;5.78;;
12476;SDS011;6303;51.504;6.300;2022-12-18T00:25:58;5.65;;;4.85;;
12476;SDS011;6303;51.504;6.300;2022-12-18T00:28:26;6.25;;;5.40;;
12476;SDS011;6303;51.504;6.300;2022-12-18T00:30:59;7.30;;;5.10;;
12476;SDS011;6303;51.504;6.300;2022-12-18T00:33:27;6.07;;;5.10;;
12476;SDS011;6303;51.504;6.300;2022-12-18T00:35:54;5.78;;;5.13;;
12476;SDS011;6303;51.504;6.300;2022-12-18T00:38:27;7.18;;;5.35;;
12476;SDS011;6303;51.504;6.300;2022-12-18T00:40:54;6.00;;;5.20;;
12476;SDS011;6303;51.504;6.300;2022-12-18T00:43:21;5.50;;;5.00;;
12476;SDS011;6303;51.504;6.300;2022-12-18T00:45:47;6.40;;;4.90;;
12476;SDS011;6303;51.504;6.300;2022-12-18T00:48:14;6.45;;;5.20;;
12476;SDS011;6303;51.504;6.300;2022-12-18T00:50:41;5.30;;;4.80;;
12476;SDS011;6303;51.504;6.300;2022-12-18T00:53:08;5.28;;;4.78;;
12476;SDS011;6303;51.504;6.300;2022-12-18T00:55:38;5.15;;;4.60;;
12476;SDS011;6303;51.504;6.300;2022-12-18T00:58:05;6.00;;;5.10;;
12476;SDS011;6303;51.504;6.300;2022-12-18T01:00:34;5.57;;;4.75;;
12476;SDS011;6303;51.504;6.300;2022-12-18T01:03:02;4.95;;;4.45;;
12476;SDS011;6303;51.504;6.300;2022-12-18T01:05:29;6.43;;;4.88;;
12476;SDS011;6303;51.504;6.300;2022-12-18T01:07:56;5.22;;;4.72;;
12476;SDS011;6303;51.504;6.300;2022-12-18T01:10:23;5.75;;;5.10;;
12476;SDS011;6303;51.504;6.300;2022-12-18T01:12:52;5.47;;;4.78;;
12476;SDS011;6303;51.504;6.300;2022-12-18T01:15:19;5.10;;;4.60;;
12476;SDS011;6303;51.504;6.300;2022-12-18T01:17:46;6.50;;;4.88;;
12476;SDS011;6303;51.504;6.300;2022-12-18T01:20:13;5.88;;;4.85;;
12476;SDS011;6303;51.504;6.300;2022-12-18T01:22:40;4.90;;;4.50;;
12476;SDS011;6303;51.504;6.300;2022-12-18T01:25:08;4.45;;;4.05;;
12476;SDS011;6303;51.504;6.300;2022-12-18T01:27:35;5.22;;;4.65;;
12476;SDS011;6303;51.504;6.300;2022-12-18T01:30:04;5.05;;;4.50;;
12476;SDS011;6303;51.504;6.300;2022-12-18T01:32:32;5.88;;;4.57;;
12476;SDS011;6303;51.504;6.300;2022-12-18T01:35:01;4.70;;;4.20;;
12476;SDS011;6303;51.504;6.300;2022-12-18T01:37:28;5.47;;;4.47;;
12476;SDS011;6303;51.504;6.300;2022-12-18T01:39:55;4.72;;;3.97;;
12476;SDS011;6303;51.504;6.300;2022-12-18T01:42:22;5.00;;;4.50;;
12476;SDS011;6303;51.504;6.300;2022-12-18T01:44:53;5.15;;;4.50;;
12476;SDS011;6303;51.504;6.300;2022-12-18T01:47:25;4.45;;;4.03;;
12476;SDS011;6303;51.504;6.300;2022-12-18T01:49:55;5.80;;;4.88;;
12476;SDS011;6303;51.504;6.300;2022-12-18T01:52:23;5.13;;;4.05;;
12476;SDS011;6303;51.504;6.300;2022-12-18T01:54:52;4.90;;;4.40;;
12476;SDS011;6303;51.504;6.300;2022-12-18T01:57:20;4.80;;;4.35;;
12476;SDS011;6303;51.504;6.300;2022-12-18T01:59:50;4.78;;;4.38;;
12476;SDS011;6303;51.504;6.300;2022-12-18T02:02:20;4.70;;;4.15;;
12476;SDS011;6303;51.504;6.300;2022-12-18T02:04:49;4.57;;;4.05;;
12476;SDS011;6303;51.504;6.300;2022-12-18T02:07:17;4.65;;;4.25;;
12476;SDS011;6303;51.504;6.300;2022-12-18T02:09:53;4.78;;;4.13;;
12476;SDS011;6303;51.504;6.300;2022-12-18T02:12:27;4.65;;;4.13;;
12476;SDS011;6303;51.504;6.300;2022-12-18T02:15:00;4.97;;;4.30;;
12476;SDS011;6303;51.504;6.300;2022-12-18T02:17:37;3.88;;;3.58;;
12476;SDS011;6303;51.504;6.300;2022-12-18T02:20:12;4.30;;;3.90;;
12476;SDS011;6303;51.504;6.300;2022-12-18T02:22:46;5.30;;;4.15;;
12476;SDS011;6303;51.504;6.300;2022-12-18T02:25:41;4.63;;;4.10;;
12476;SDS011;6303;51.504;6.300;2022-12-18T02:28:31;4.28;;;3.90;;
12476;SDS011;6303;51.504;6.300;2022-12-18T02:31:04;4.88;;;4.13;;
12476;SDS011;6303;51.504;6.300;2022-12-18T02:33:36;4.78;;;4.15;;
12476;SDS011;6303;51.504;6.300;2022-12-18T02:36:04;4.63;;;4.15;;
12476;SDS011;6303;51.504;6.300;2022-12-18T02:38:33;4.35;;;3.95;;
12476;SDS011;6303;51.504;6.300;2022-12-18T02:41:08;4.45;;;4.05;;
12476;SDS011;6303;51.504;6.300;2022-12-18T02:43:37;4.68;;;4.28;;
12476;SDS011;6303;51.504;6.300;2022-12-18T02:46:20;5.75;;;3.95;;
12476;SDS011;6303;51.504;6.300;2022-12-18T02:49:03;4.20;;;3.80;;
12476;SDS011;6303;51.504;6.300;2022-12-18T02:51:40;4.03;;;3.60;;
12476;SDS011;6303;51.504;6.300;2022-12-18T02:54:17;4.30;;;3.90;;
12476;SDS011;6303;51.504;6.300;2022-12-18T02:56:55;5.05;;;3.90;;
12476;SDS011;6303;51.504;6.300;2022-12-18T02:59:25;4.30;;;3.90;;
12476;SDS011;6303;51.504;6.300;2022-12-18T03:01:58;4.40;;;4.00;;
12476;SDS011;6303;51.504;6.300;2022-12-18T03:04:33;3.92;;;3.47;;
12476;SDS011;6303;51.504;6.300;2022-12-18T03:07:08;4.47;;;4.07;;
12476;SDS011;6303;51.504;6.300;2022-12-18T03:09:42;4.25;;;3.85;;
12476;SDS011;6303;51.504;6.300;2022-12-18T03:12:18;4.40;;;4.00;;
12476;SDS011;6303;51.504;6.300;2022-12-18T03:14:54;4.22;;;3.83;;
12476;SDS011;6303;51.504;6.300;2022-12-18T03:17:26;4.30;;;3.83;;
12476;SDS011;6303;51.504;6.300;2022-12-18T03:19:56;4.13;;;3.78;;
12476;SDS011;6303;51.504;6.300;2022-12-18T03:22:32;4.88;;;4.18;;
12476;SDS011;6303;51.504;6.300;2022-12-18T03:25:02;4.60;;;4.10;;
12476;SDS011;6303;51.504;6.300;2022-12-18T03:27:35;4.35;;;3.83;;
12476;SDS011;6303;51.504;6.300;2022-12-18T03:30:10;3.95;;;3.55;;
12476;SDS011;6303;51.504;6.300;2022-12-18T03:32:39;7.03;;;3.97;;
12476;SDS011;6303;51.504;6.300;2022-12-18T03:35:11;3.92;;;3.53;;
12476;SDS011;6303;51.504;6.300;2022-12-18T03:37:43;4.57;;;3.90;;
12476;SDS011;6303;51.504;6.300;2022-12-18T03:40:11;3.85;;;3.45;;
12476;SDS011;6303;51.504;6.300;2022-12-18T03:42:42;4.10;;;3.72;;
12476;SDS011;6303;51.504;6.300;2022-12-18T03:45:19;4.30;;;3.90;;
12476;SDS011;6303;51.504;6.300;2022-12-18T03:47:53;4.70;;;4.00;;
12476;SDS011;6303;51.504;6.300;2022-12-18T03:50:31;4.20;;;3.78;;
12476;SDS011;6303;51.504;6.300;2022-12-18T03:53:08;4.00;;;3.60;;
12476;SDS011;6303;51.504;6.300;2022-12-18T03:55:47;4.25;;;3.85;;
12476;SDS011;6303;51.504;6.300;2022-12-18T03:58:18;4.57;;;3.50;;
12476;SDS011;6303;51.504;6.300;2022-12-18T04:00:56;4.75;;;3.63;;
12476;SDS011;6303;51.504;6.300;2022-12-18T04:03:27;4.30;;;3.90;;
12476;SDS011;6303;51.504;6.300;2022-12-18T04:05:56;4.35;;;3.88;;
12476;SDS011;6303;51.504;6.300;2022-12-18T04:08:27;4.20;;;3.80;;
12476;SDS011;6303;51.504;6.300;2022-12-18T04:11:05;4.15;;;3.75;;
12476;SDS011;6303;51.504;6.300;2022-12-18T04:13:35;3.92;;;3.42;;
12476;SDS011;6303;51.504;6.300;2022-12-18T04:16:07;3.50;;;3.20;;
12476;SDS011;6303;51.504;6.300;2022-12-18T04:18:38;3.97;;;3.58;;
12476;SDS011;6303;51.504;6.300;2022-12-18T04:21:07;4.78;;;3.50;;
12476;SDS011;6303;51.504;6.300;2022-12-18T04:23:35;4.18;;;3.75;;
12476;SDS011;6303;51.504;6.300;2022-12-18T04:26:02;4.25;;;3.50;;
12476;SDS011;6303;51.504;6.300;2022-12-18T04:28:54;4.07;;;3.50;;
12476;SDS011;6303;51.504;6.300;2022-12-18T04:31:21;4.00;;;3.60;;
12476;SDS011;6303;51.504;6.300;2022-12-18T04:33:48;3.95;;;3.65;;
12476;SDS011;6303;51.504;6.300;2022-12-18T04:36:15;4.30;;;3.60;;
12476;SDS011;6303;51.504;6.300;2022-12-18T04:38:44;4.32;;;3.67;;
12476;SDS011;6303;51.504;6.300;2022-12-18T04:41:14;4.55;;;3.63;;
12476;SDS011;6303;51.504;6.300;2022-12-18T04:43:44;4.30;;;3.90;;
12476;SDS011;6303;51.504;6.300;2022-12-18T04:46:12;3.95;;;3.60;;
12476;SDS011;6303;51.504;6.300;2022-12-18T04:48:39;3.80;;;3.40;;
12476;SDS011;6303;51.504;6.300;2022-12-18T04:51:07;3.25;;;2.95;;
12476;SDS011;6303;51.504;6.300;2022-12-18T04:53:34;4.05;;;3.60;;
12476;SDS011;6303;51.504;6.300;2022-12-18T04:56:04;4.28;;;3.88;;
12476;SDS011;6303;51.504;6.300;2022-12-18T04:58:33;3.90;;;3.60;;
12476;SDS011;6303;51.504;6.300;2022-12-18T05:01:00;4.22;;;3.85;;
12476;SDS011;6303;51.504;6.300;2022-12-18T05:03:30;3.80;;;3.40;;
12476;SDS011;6303;51.504;6.300;2022-12-18T05:05:57;3.38;;;3.08;;
12476;SDS011;6303;51.504;6.300;2022-12-18T05:08:24;3.78;;;3.33;;
12476;SDS011;6303;51.504;6.300;2022-12-18T05:10:57;3.92;;;3.50;;
12476;SDS011;6303;51.504;6.300;2022-12-18T05:13:25;3.92;;;3.42;;
12476;SDS011;6303;51.504;6.300;2022-12-18T05:15:52;3.65;;;3.35;;
12476;SDS011;6303;51.504;6.300;2022-12-18T05:18:20;3.97;;;3.50;;
12476;SDS011;6303;51.504;6.300;2022-12-18T05:20:48;4.03;;;3.50;;
12476;SDS011;6303;51.504;6.300;2022-12-18T05:23:16;3.53;;;3.22;;
12476;SDS011;6303;51.504;6.300;2022-12-18T05:25:46;3.95;;;3.55;;
12476;SDS011;6303;51.504;6.300;2022-12-18T05:28:13;3.90;;;3.50;;
12476;SDS011;6303;51.504;6.300;2022-12-18T05:30:40;3.63;;;3.30;;
12476;SDS011;6303;51.504;6.300;2022-12-18T05:33:07;3.63;;;3.33;;
12476;SDS011;6303;51.504;6.300;2022-12-18T05:35:34;3.60;;;3.30;;
12476;SDS011;6303;51.504;6.300;2022-12-18T05:38:03;3.70;;;3.30;;
12476;SDS011;6303;51.504;6.300;2022-12-18T05:40:30;4.07;;;3.58;;
12476;SDS011;6303;51.504;6.300;2022-12-18T05:42:57;3.75;;;3.45;;
12476;SDS011;6303;51.504;6.300;2022-12-18T05:45:24;3.72;;;3.42;;
12476;SDS011;6303;51.504;6.300;2022-12-18T05:47:51;3.80;;;3.50;;
12476;SDS011;6303;51.504;6.300;2022-12-18T05:50:18;4.25;;;3.47;;
12476;SDS011;6303;51.504;6.300;2022-12-18T05:52:45;3.70;;;3.40;;
12476;SDS011;6303;51.504;6.300;2022-12-18T05:55:13;3.72;;;3.42;;
12476;SDS011;6303;51.504;6.300;2022-12-18T05:57:40;3.80;;;3.40;;
12476;SDS011;6303;51.504;6.300;2022-12-18T06:00:08;3.65;;;3.28;;
12476;SDS011;6303;51.504;6.300;2022-12-18T06:02:37;4.13;;;3.65;;
12476;SDS011;6303;51.504;6.300;2022-12-18T06:05:05;3.40;;;3.10;;
12476;SDS011;6303;51.504;6.300;2022-12-18T06:07:32;3.58;;;3.28;;
12476;SDS011;6303;51.504;6.300;2022-12-18T06:09:59;3.90;;;3.50;;
12476;SDS011;6303;51.504;6.300;2022-12-18T06:12:27;4.07;;;3.42;;
12476;SDS011;6303;51.504;6.300;2022-12-18T06:14:54;3.65;;;3.33;;
12476;SDS011;6303;51.504;6.300;2022-12-18T06:17:21;3.70;;;3.28;;
12476;SDS011;6303;51.504;6.300;2022-12-18T06:19:48;3.45;;;3.15;;
12476;SDS011;6303;51.504;6.300;2022-12-18T06:22:15;3.58;;;3.28;;
12476;SDS011;6303;51.504;6.300;2022-12-18T06:24:42;3.90;;;3.50;;
12476;SDS011;6303;51.504;6.300;2022-12-18T06:27:09;4.20;;;3.67;;
12476;SDS011;6303;51.504;6.300;2022-12-18T06:29:38;3.58;;;3.28;;
12476;SDS011;6303;51.504;6.300;2022-12-18T06:32:05;4.35;;;3.85;;
12476;SDS011;6303;51.504;6.300;2022-12-18T06:34:32;3.60;;;3.20;;
12476;SDS011;6303;51.504;6.300;2022-12-18T06:36:59;3.50;;;3.20;;
12476;SDS011;6303;51.504;6.300;2022-12-18T06:39:27;3.70;;;3.40;;
12476;SDS011;6303;51.504;6.300;2022-12-18T06:41:54;3.50;;;3.20;;
12476;SDS011;6303;51.504;6.300;2022-12-18T06:44:21;3.55;;;3.25;;
12476;SDS011;6303;51.504;6.300;2022-12-18T06:46:49;3.47;;;3.17;;
12476;SDS011;6303;51.504;6.300;2022-12-18T06:49:16;3.60;;;3.30;;
12476;SDS011;6303;51.504;6.300;2022-12-18T06:51:43;3.55;;;3.25;;
12476;SDS011;6303;51.504;6.300;2022-12-18T06:54:10;3.65;;;3.35;;
12476;SDS011;6303;51.504;6.300;2022-12-18T06:56:37;3.67;;;3.38;;
12476;SDS011;6303;51.504;6.300;2022-12-18T06:59:04;3.35;;;3.05;;
12476;SDS011;6303;51.504;6.300;2022-12-18T07:01:31;3.38;;;3.08;;
12476;SDS011;6303;51.504;6.300;2022-12-18T07:04:00;3.72;;;3.40;;
12476;SDS011;6303;51.504;6.300;2022-12-18T07:06:27;3.72;;;3.35;;
12476;SDS011;6303;51.504;6.300;2022-12-18T07:08:54;3.50;;;3.15;;
12476;SDS011;6303;51.504;6.300;2022-12-18T07:11:21;3.70;;;3.40;;
12476;SDS011;6303;51.504;6.300;2022-12-18T07:13:48;3.72;;;3.30;;
12476;SDS011;6303;51.504;6.300;2022-12-18T07:16:16;3.83;;;3.42;;
12476;SDS011;6303;51.504;6.300;2022-12-18T07:18:44;4.00;;;3.42;;
12476;SDS011;6303;51.504;6.300;2022-12-18T07:21:13;3.47;;;3.17;;
12476;SDS011;6303;51.504;6.300;2022-12-18T07:23:42;3.53;;;3.20;;
12476;SDS011;6303;51.504;6.300;2022-12-18T07:26:10;3.65;;;3.33;;
12476;SDS011;6303;51.504;6.300;2022-12-18T07:28:38;4.25;;;3.50;;
12476;SDS011;6303;51.504;6.300;2022-12-18T07:31:08;3.42;;;3.13;;
12476;SDS011;6303;51.504;6.300;2022-12-18T07:33:36;3.35;;;3.05;;
12476;SDS011;6303;51.504;6.300;2022-12-18T07:36:04;3.47;;;2.80;;
12476;SDS011;6303;51.504;6.300;2022-12-18T07:38:34;3.47;;;2.97;;
12476;SDS011;6303;51.504;6.300;2022-12-18T07:41:02;3.88;;;3.40;;
12476;SDS011;6303;51.504;6.300;2022-12-18T07:43:30;3.55;;;3.25;;
12476;SDS011;6303;51.504;6.300;2022-12-18T07:45:57;3.47;;;3.08;;
12476;SDS011;6303;51.504;6.300;2022-12-18T07:48:24;2.90;;;2.70;;
12476;SDS011;6303;51.504;6.300;2022-12-18T07:50:51;3.60;;;3.30;;
12476;SDS011;6303;51.504;6.300;2022-12-18T07:53:18;4.25;;;3.45;;
12476;SDS011;6303;51.504;6.300;2022-12-18T07:55:47;3.17;;;2.88;;
12476;SDS011;6303;51.504;6.300;2022-12-18T07:58:14;3.30;;;3.00;;
12476;SDS011;6303;51.504;6.300;2022-12-18T08:00:41;3.58;;;3.28;;
12476;SDS011;6303;51.504;6.300;2022-12-18T08:03:08;3.97;;;3.10;;
12476;SDS011;6303;51.504;6.300;2022-12-18T08:05:35;3.50;;;3.20;;
12476;SDS011;6303;51.504;6.300;2022-12-18T08:08:02;4.78;;;3.45;;
12476;SDS011;6303;51.504;6.300;2022-12-18T08:10:29;3.45;;;3.15;;
12476;SDS011;6303;51.504;6.300;2022-12-18T08:12:57;3.38;;;3.05;;
12476;SDS011;6303;51.504;6.300;2022-12-18T08:15:24;3.75;;;2.80;;
12476;SDS011;6303;51.504;6.300;2022-12-18T08:17:51;3.47;;;3.00;;
12476;SDS011;6303;51.504;6.300;2022-12-18T08:20:18;3.45;;;3.15;;
12476;SDS011;6303;51.504;6.300;2022-12-18T08:22:45;3.72;;;3.33;;
12476;SDS011;6303;51.504;6.300;2022-12-18T08:25:12;3.47;;;3.17;;
12476;SDS011;6303;51.504;6.300;2022-12-18T08:27:39;3.90;;;3.17;;
12476;SDS011;6303;51.504;6.300;2022-12-18T08:30:08;3.35;;;3.05;;
12476;SDS011;6303;51.504;6.300;2022-12-18T08:32:36;3.55;;;3.25;;
12476;SDS011;6303;51.504;6.300;2022-12-18T08:35:04;3.40;;;3.03;;
12476;SDS011;6303;51.504;6.300;2022-12-18T08:37:32;3.50;;;3.20;;
12476;SDS011;6303;51.504;6.300;2022-12-18T08:39:59;3.78;;;3.38;;
12476;SDS011;6303;51.504;6.300;2022-12-18T08:42:25;3.08;;;2.78;;
12476;SDS011;6303;51.504;6.300;2022-12-18T08:45:11;3.38;;;3.08;;
12476;SDS011;6303;51.504;6.300;2022-12-18T08:47:37;3.50;;;3.10;;
12476;SDS011;6303;51.504;6.300;2022-12-18T08:50:05;3.47;;;3.08;;
12476;SDS011;6303;51.504;6.300;2022-12-18T08:52:32;3.47;;;3.17;;
12476;SDS011;6303;51.504;6.300;2022-12-18T08:54:59;3.17;;;2.88;;
12476;SDS011;6303;51.504;6.300;2022-12-18T08:57:26;3.40;;;3.10;;
12476;SDS011;6303;51.504;6.300;2022-12-18T08:59:53;3.65;;;3.33;;
12476;SDS011;6303;51.504;6.300;2022-12-18T09:02:22;3.45;;;3.08;;
12476;SDS011;6303;51.504;6.300;2022-12-18T09:04:49;3.70;;;3.20;;
12476;SDS011;6303;51.504;6.300;2022-12-18T09:07:16;3.25;;;2.95;;
12476;SDS011;6303;51.504;6.300;2022-12-18T09:09:43;3.38;;;3.05;;
12476;SDS011;6303;51.504;6.300;2022-12-18T09:12:10;3.53;;;3.20;;
12476;SDS011;6303;51.504;6.300;2022-12-18T09:14:37;3.28;;;2.97;;
12476;SDS011;6303;51.504;6.300;2022-12-18T09:17:04;3.25;;;2.95;;
12476;SDS011;6303;51.504;6.300;2022-12-18T09:19:32;3.53;;;3.22;;
12476;SDS011;6303;51.504;6.300;2022-12-18T09:21:59;3.38;;;3.08;;
12476;SDS011;6303;51.504;6.300;2022-12-18T09:24:26;3.55;;;3.00;;
12476;SDS011;6303;51.504;6.300;2022-12-18T09:26:53;3.20;;;2.90;;
12476;SDS011;6303;51.504;6.300;2022-12-18T09:29:21;3.50;;;3.03;;
12476;SDS011;6303;51.504;6.300;2022-12-18T09:31:48;3.75;;;3.30;;
12476;SDS011;6303;51.504;6.300;2022-12-18T09:34:15;3.45;;;3.15;;
12476;SDS011;6303;51.504;6.300;2022-12-18T09:36:44;3.35;;;3.05;;
12476;SDS011;6303;51.504;6.300;2022-12-18T09:39:11;3.28;;;2.97;;
12476;SDS011;6303;51.504;6.300;2022-12-18T09:41:42;3.20;;;2.90;;
12476;SDS011;6303;51.504;6.300;2022-12-18T09:44:14;3.80;;;3.20;;
12476;SDS011;6303;51.504;6.300;2022-12-18T09:46:47;3.38;;;3.00;;
12476;SDS011;6303;51.504;6.300;2022-12-18T09:49:19;3.60;;;3.30;;
12476;SDS011;6303;51.504;6.300;2022-12-18T09:51:54;3.78;;;3.40;;
12476;SDS011;6303;51.504;6.300;2022-12-18T09:54:26;3.53;;;3.22;;
12476;SDS011;6303;51.504;6.300;2022-12-18T09:56:58;3.65;;;3.13;;
12476;SDS011;6303;51.504;6.300;2022-12-18T09:59:26;3.80;;;3.20;;
12476;SDS011;6303;51.504;6.300;2022-12-18T10:01:58;3.55;;;3.25;;
12476;SDS011;6303;51.504;6.300;2022-12-18T10:04:32;3.33;;;3.00;;
12476;SDS011;6303;51.504;6.300;2022-12-18T10:07:01;3.28;;;2.97;;
12476;SDS011;6303;51.504;6.300;2022-12-18T10:09:33;3.10;;;2.80;;
12476;SDS011;6303;51.504;6.300;2022-12-18T10:12:07;3.45;;;3.15;;
12476;SDS011;6303;51.504;6.300;2022-12-18T10:14:41;3.20;;;2.90;;
12476;SDS011;6303;51.504;6.300;2022-12-18T10:17:17;3.58;;;3.28;;
12476;SDS011;6303;51.504;6.300;2022-12-18T10:19:51;3.10;;;2.80;;
12476;SDS011;6303;51.504;6.300;2022-12-18T10:22:28;3.45;;;2.95;;
12476;SDS011;6303;51.504;6.300;2022-12-18T10:25:12;4.10;;;3.33;;
12476;SDS011;6303;51.504;6.300;2022-12-18T10:27:45;3.30;;;3.00;;
12476;SDS011;6303;51.504;6.300;2022-12-18T10:30:14;3.25;;;2.95;;
12476;SDS011;6303;51.504;6.300;2022-12-18T10:32:42;3.53;;;3.22;;
12476;SDS011;6303;51.504;6.300;2022-12-18T10:35:11;3.33;;;3.03;;
12476;SDS011;6303;51.504;6.300;2022-12-18T10:40:48;3.67;;;3.35;;
12476;SDS011;6303;51.504;6.300;2022-12-18T10:43:19;4.28;;;3.30;;
12476;SDS011;6303;51.504;6.300;2022-12-18T10:46:02;4.97;;;3.38;;
12476;SDS011;6303;51.504;6.300;2022-12-18T10:48:39;3.63;;;3.30;;
12476;SDS011;6303;51.504;6.300;2022-12-18T10:51:19;3.67;;;3.25;;
12476;SDS011;6303;51.504;6.300;2022-12-18T10:53:51;3.38;;;3.08;;
12476;SDS011;6303;51.504;6.300;2022-12-18T10:56:21;3.40;;;3.10;;
12476;SDS011;6303;51.504;6.300;2022-12-18T10:58:56;4.30;;;3.13;;
12476;SDS011;6303;51.504;6.300;2022-12-18T11:01:25;3.75;;;3.35;;
12476;SDS011;6303;51.504;6.300;2022-12-18T11:04:00;3.33;;;3.03;;
12476;SDS011;6303;51.504;6.300;2022-12-18T11:06:33;3.50;;;3.20;;
12476;SDS011;6303;51.504;6.300;2022-12-18T11:09:18;3.25;;;2.95;;
12476;SDS011;6303;51.504;6.300;2022-12-18T11:11:49;3.75;;;3.40;;
12476;SDS011;6303;51.504;6.300;2022-12-18T11:14:20;4.72;;;3.03;;
12476;SDS011;6303;51.504;6.300;2022-12-18T11:16:49;3.22;;;2.90;;
12476;SDS011;6303;51.504;6.300;2022-12-18T11:19:24;3.70;;;3.33;;
12476;SDS011;6303;51.504;6.300;2022-12-18T11:21:56;4.05;;;3.67;;
12476;SDS011;6303;51.504;6.300;2022-12-18T11:24:25;4.03;;;3.10;;
12476;SDS011;6303;51.504;6.300;2022-12-18T11:26:58;3.67;;;3.38;;
12476;SDS011;6303;51.504;6.300;2022-12-18T11:29:34;3.50;;;3.20;;
12476;SDS011;6303;51.504;6.300;2022-12-18T11:34:58;3.70;;;3.20;;
12476;SDS011;6303;51.504;6.300;2022-12-18T11:37:31;3.20;;;2.90;;
12476;SDS011;6303;51.504;6.300;2022-12-18T11:40:00;4.35;;;3.42;;
12476;SDS011;6303;51.504;6.300;2022-12-18T11:42:36;3.60;;;3.30;;
12476;SDS011;6303;51.504;6.300;2022-12-18T11:45:14;3.85;;;3.45;;
12476;SDS011;6303;51.504;6.300;2022-12-18T11:47:52;3.55;;;3.25;;
12476;SDS011;6303;51.504;6.300;2022-12-18T11:50:24;3.60;;;3.30;;
12476;SDS011;6303;51.504;6.300;2022-12-18T11:53:12;3.92;;;3.47;;
12476;SDS011;6303;51.504;6.300;2022-12-18T11:55:41;3.80;;;3.40;;
12476;SDS011;6303;51.504;6.300;2022-12-18T11:58:27;3.45;;;3.15;;
12476;SDS011;6303;51.504;6.300;2022-12-18T12:01:11;3.92;;;3.10;;
12476;SDS011;6303;51.504;6.300;2022-12-18T12:03:57;3.50;;;3.17;;
12476;SDS011;6303;51.504;6.300;2022-12-18T12:06:39;4.07;;;3.35;;
12476;SDS011;6303;51.504;6.300;2022-12-18T12:09:19;3.67;;;3.05;;
12476;SDS011;6303;51.504;6.300;2022-12-18T12:11:57;3.85;;;3.45;;
12476;SDS011;6303;51.504;6.300;2022-12-18T12:14:41;3.45;;;3.15;;
12476;SDS011;6303;51.504;6.300;2022-12-18T12:17:19;3.30;;;2.90;;
12476;SDS011;6303;51.504;6.300;2022-12-18T12:19:56;3.45;;;2.95;;
12476;SDS011;6303;51.504;6.300;2022-12-18T12:22:30;3.83;;;3.42;;
12476;SDS011;6303;51.504;6.300;2022-12-18T12:25:08;3.60;;;3.30;;
12476;SDS011;6303;51.504;6.300;2022-12-18T12:27:46;4.55;;;3.30;;
12476;SDS011;6303;51.504;6.300;2022-12-18T12:30:26;4.47;;;3.67;;
12476;SDS011;6303;51.504;6.300;2022-12-18T12:33:04;3.40;;;3.10;;
12476;SDS011;6303;51.504;6.300;2022-12-18T12:35:44;3.83;;;3.40;;
12476;SDS011;6303;51.504;6.300;2022-12-18T12:38:18;3.70;;;3.33;;
12476;SDS011;6303;51.504;6.300;2022-12-18T12:40:51;3.70;;;3.40;;
12476;SDS011;6303;51.504;6.300;2022-12-18T12:43:25;4.03;;;3.63;;
12476;SDS011;6303;51.504;6.300;2022-12-18T12:46:00;3.80;;;3.35;;
12476;SDS011;6303;51.504;6.300;2022-12-18T12:48:33;3.83;;;3.40;;
12476;SDS011;6303;51.504;6.300;2022-12-18T12:51:06;5.45;;;3.70;;
12476;SDS011;6303;51.504;6.300;2022-12-18T12:53:38;3.50;;;3.20;;
12476;SDS011;6303;51.504;6.300;2022-12-18T12:56:06;3.88;;;3.20;;
12476;SDS011;6303;51.504;6.300;2022-12-18T12:58:36;3.80;;;3.40;;
12476;SDS011;6303;51.504;6.300;2022-12-18T13:01:14;3.58;;;3.28;;
12476;SDS011;6303;51.504;6.300;2022-12-18T13:03:52;4.07;;;3.20;;
12476;SDS011;6303;51.504;6.300;2022-12-18T13:06:28;4.38;;;3.42;;
12476;SDS011;6303;51.504;6.300;2022-12-18T13:09:02;3.47;;;3.17;;
12476;SDS011;6303;51.504;6.300;2022-12-18T13:11:37;3.92;;;3.40;;
12476;SDS011;6303;51.504;6.300;2022-12-18T13:14:24;3.30;;;3.00;;
12476;SDS011;6303;51.504;6.300;2022-12-18T13:17:16;3.28;;;2.97;;
12476;SDS011;6303;51.504;6.300;2022-12-18T13:22:46;3.50;;;3.20;;
12476;SDS011;6303;51.504;6.300;2022-12-18T13:25:31;3.63;;;3.33;;
12476;SDS011;6303;51.504;6.300;2022-12-18T13:30:50;4.30;;;3.50;;
12476;SDS011;6303;51.504;6.300;2022-12-18T13:36:35;3.33;;;2.80;;
12476;SDS011;6303;51.504;6.300;2022-12-18T13:45:40;3.55;;;3.25;;
12476;SDS011;6303;51.504;6.300;2022-12-18T13:48:17;4.60;;;3.70;;
12476;SDS011;6303;51.504;6.300;2022-12-18T13:50:53;3.58;;;3.20;;
12476;SDS011;6303;51.504;6.300;2022-12-18T13:53:25;5.78;;;3.40;;
12476;SDS011;6303;51.504;6.300;2022-12-18T13:55:55;3.53;;;3.22;;
12476;SDS011;6303;51.504;6.300;2022-12-18T13:58:23;3.80;;;3.40;;
12476;SDS011;6303;51.504;6.300;2022-12-18T14:00:50;4.05;;;3.65;;
12476;SDS011;6303;51.504;6.300;2022-12-18T14:03:18;4.32;;;3.50;;
12476;SDS011;6303;51.504;6.300;2022-12-18T14:05:53;3.67;;;3.35;;
12476;SDS011;6303;51.504;6.300;2022-12-18T14:08:22;4.47;;;3.58;;
12476;SDS011;6303;51.504;6.300;2022-12-18T14:10:56;3.28;;;2.97;;
12476;SDS011;6303;51.504;6.300;2022-12-18T14:13:24;4.28;;;3.88;;
12476;SDS011;6303;51.504;6.300;2022-12-18T14:15:54;4.35;;;3.30;;
12476;SDS011;6303;51.504;6.300;2022-12-18T14:18:23;3.92;;;3.60;;
12476;SDS011;6303;51.504;6.300;2022-12-18T14:20:54;4.32;;;3.55;;
12476;SDS011;6303;51.504;6.300;2022-12-18T14:23:25;4.07;;;3.67;;
12476;SDS011;6303;51.504;6.300;2022-12-18T14:25:56;3.95;;;3.55;;
12476;SDS011;6303;51.504;6.300;2022-12-18T14:28:23;4.20;;;3.80;;
12476;SDS011;6303;51.504;6.300;2022-12-18T14:30:51;4.15;;;3.75;;
12476;SDS011;6303;51.504;6.300;2022-12-18T14:33:20;3.85;;;3.50;;
12476;SDS011;6303;51.504;6.300;2022-12-18T14:35:54;4.32;;;3.92;;
12476;SDS011;6303;51.504;6.300;2022-12-18T14:38:24;4.25;;;3.85;;
12476;SDS011;6303;51.504;6.300;2022-12-18T14:40:54;3.83;;;3.42;;
12476;SDS011;6303;51.504;6.300;2022-12-18T14:43:22;4.50;;;3.78;;
12476;SDS011;6303;51.504;6.300;2022-12-18T14:45:50;4.63;;;4.22;;
12476;SDS011;6303;51.504;6.300;2022-12-18T14:48:18;4.30;;;3.90;;
12476;SDS011;6303;51.504;6.300;2022-12-18T14:50:55;4.65;;;3.33;;
12476;SDS011;6303;51.504;6.300;2022-12-18T14:53:27;4.13;;;3.70;;
12476;SDS011;6303;51.504;6.300;2022-12-18T14:55:59;3.92;;;3.53;;
12476;SDS011;6303;51.504;6.300;2022-12-18T14:58:27;3.72;;;3.40;;
12476;SDS011;6303;51.504;6.300;2022-12-18T15:00:54;4.30;;;3.85;;
12476;SDS011;6303;51.504;6.300;2022-12-18T15:03:21;3.90;;;3.50;;
12476;SDS011;6303;51.504;6.300;2022-12-18T15:05:48;3.75;;;3.35;;
12476;SDS011;6303;51.504;6.300;2022-12-18T15:08:30;4.03;;;3.63;;
12476;SDS011;6303;51.504;6.300;2022-12-18T15:11:01;3.90;;;3.33;;
12476;SDS011;6303;51.504;6.300;2022-12-18T15:13:28;4.13;;;3.72;;
12476;SDS011;6303;51.504;6.300;2022-12-18T15:15:56;3.90;;;3.58;;
12476;SDS011;6303;51.504;6.300;2022-12-18T15:18:29;4.30;;;3.90;;
12476;SDS011;6303;51.504;6.300;2022-12-18T15:20:59;4.10;;;3.67;;
12476;SDS011;6303;51.504;6.300;2022-12-18T15:23:38;4.10;;;3.70;;
12476;SDS011;6303;51.504;6.300;2022-12-18T15:26:13;4.30;;;3.72;;
12476;SDS011;6303;51.504;6.300;2022-12-18T15:28:43;4.20;;;3.65;;
12476;SDS011;6303;51.504;6.300;2022-12-18T15:31:28;3.78;;;3.45;;
12476;SDS011;6303;51.504;6.300;2022-12-18T15:34:01;4.07;;;3.67;;
12476;SDS011;6303;51.504;6.300;2022-12-18T15:36:37;4.88;;;3.67;;
12476;SDS011;6303;51.504;6.300;2022-12-18T15:39:06;3.75;;;3.40;;
12476;SDS011;6303;51.504;6.300;2022-12-18T15:41:37;4.13;;;3.67;;
12476;SDS011;6303;51.504;6.300;2022-12-18T15:44:14;4.10;;;3.67;;